sensor_id;sensor_type;location;lat;lon;timestamp;temperature;humidity
32470;DHT22;18925;48.356;10.864;2022-10-22T00:00:07;13.60;99.90
32470;DHT22;18925;48.356;10.864;2022-10-22T00:00:38;13.60;99.90
32470;DHT22;18925;48.356;10.864;2022-10-22T00:01:08;13.70;99.90
32470;DHT22;18925;48.356;10.864;2022-10-22T00:01:39;13.70;99.90
32470;DHT22;18925;48.356;10.864;2022-10-22T00:02:10;13.70;99.90
32470;DHT22;18925;48.356;10.864;2022-10-22T00:02:41;13.70;99.90
32470;DHT22;18925;48.356;10.864;2022-10-22T00:03:12;13.60;99.90
32470;DHT22;18925;48.356;10.864;2022-10-22T00:03:42;13.60;99.90
32470;DHT22;18925;48.356;10.864;2022-10-22T00:04:13;13.60;99.90
32470;DHT22;18925;48.356;10.864;2022-10-22T00:04:45;13.60;99.90
32470;DHT22;18925;48.356;10.864;2022-10-22T00:05:16;13.70;99.90
32470;DHT22;18925;48.356;10.864;2022-10-22T00:05:47;13.60;99.90
32470;DHT22;18925;48.356;10.864;2022-10-22T00:06:18;13.60;99.90
32470;DHT22;18925;48.356;10.864;2022-10-22T00:06:48;13.60;99.90
32470;DHT22;18925;48.356;10.864;2022-10-22T00:07:19;13.60;99.90
32470;DHT22;18925;48.356;10.864;2022-10-22T00:07:50;13.60;99.90
32470;DHT22;18925;48.356;10.864;2022-10-22T00:08:21;13.60;99.90
32470;DHT22;18925;48.356;10.864;2022-10-22T00:08:52;13.60;99.90
32470;DHT22;18925;48.356;10.864;2022-10-22T00:09:22;13.60;99.90
32470;DHT22;18925;48.356;10.864;2022-10-22T00:09:53;13.60;99.90
32470;DHT22;18925;48.356;10.864;2022-10-22T00:10:23;13.60;99.90
32470;DHT22;18925;48.356;10.864;2022-10-22T00:10:54;13.60;99.90
32470;DHT22;18925;48.356;10.864;2022-10-22T00:11:26;13.60;99.90
32470;DHT22;18925;48.356;10.864;2022-10-22T00:11:56;13.60;99.90
32470;DHT22;18925;48.356;10.864;2022-10-22T00:12:27;13.60;99.90
32470;DHT22;18925;48.356;10.864;2022-10-22T00:12:58;13.60;99.90
32470;DHT22;18925;48.356;10.864;2022-10-22T00:13:29;13.60;99.90
32470;DHT22;18925;48.356;10.864;2022-10-22T00:13:59;13.60;99.90
32470;DHT22;18925;48.356;10.864;2022-10-22T00:14:30;13.70;99.90
32470;DHT22;18925;48.356;10.864;2022-10-22T00:15:02;13.60;99.90
32470;DHT22;18925;48.356;10.864;2022-10-22T00:15:33;13.60;99.90
32470;DHT22;18925;48.356;10.864;2022-10-22T00:16:03;13.60;99.90
32470;DHT22;18925;48.356;10.864;2022-10-22T00:16:34;13.60;99.90
32470;DHT22;18925;48.356;10.864;2022-10-22T00:17:05;13.60;99.90
32470;DHT22;18925;48.356;10.864;2022-10-22T00:17:36;13.60;99.90
32470;DHT22;18925;48.356;10.864;2022-10-22T00:18:06;13.60;99.90
32470;DHT22;18925;48.356;10.864;2022-10-22T00:18:38;13.70;99.90
32470;DHT22;18925;48.356;10.864;2022-10-22T00:19:09;13.60;99.90
32470;DHT22;18925;48.356;10.864;2022-10-22T00:19:40;13.60;99.90
32470;DHT22;18925;48.356;10.864;2022-10-22T00:20:11;13.60;99.90
32470;DHT22;18925;48.356;10.864;2022-10-22T00:20:41;13.60;99.90
32470;DHT22;18925;48.356;10.864;2022-10-22T00:21:13;13.60;99.90
32470;DHT22;18925;48.356;10.864;2022-10-22T00:21:43;13.60;99.90
32470;DHT22;18925;48.356;10.864;2022-10-22T00:22:14;13.60;99.90
32470;DHT22;18925;48.356;10.864;2022-10-22T00:22:45;13.60;99.90
32470;DHT22;18925;48.356;10.864;2022-10-22T00:23:16;13.60;99.90
32470;DHT22;18925;48.356;10.864;2022-10-22T00:23:46;13.60;99.90
32470;DHT22;18925;48.356;10.864;2022-10-22T00:24:17;13.60;99.90
32470;DHT22;18925;48.356;10.864;2022-10-22T00:24:48;13.60;99.90
32470;DHT22;18925;48.356;10.864;2022-10-22T00:25:18;13.60;99.90
32470;DHT22;18925;48.356;10.864;2022-10-22T00:25:49;13.60;99.90
32470;DHT22;18925;48.356;10.864;2022-10-22T00:26:20;13.60;99.90
32470;DHT22;18925;48.356;10.864;2022-10-22T00:26:51;13.60;99.90
32470;DHT22;18925;48.356;10.864;2022-10-22T00:27:22;13.60;99.90
32470;DHT22;18925;48.356;10.864;2022-10-22T00:27:52;13.60;99.90
32470;DHT22;18925;48.356;10.864;2022-10-22T00:28:23;13.60;99.90
32470;DHT22;18925;48.356;10.864;2022-10-22T00:28:54;13.60;99.90
32470;DHT22;18925;48.356;10.864;2022-10-22T00:29:24;13.60;99.90
32470;DHT22;18925;48.356;10.864;2022-10-22T00:29:55;13.60;99.90
32470;DHT22;18925;48.356;10.864;2022-10-22T00:30:26;13.60;99.90
32470;DHT22;18925;48.356;10.864;2022-10-22T00:30:58;13.60;99.90
32470;DHT22;18925;48.356;10.864;2022-10-22T00:31:29;13.70;99.90
32470;DHT22;18925;48.356;10.864;2022-10-22T00:32:00;13.60;99.90
32470;DHT22;18925;48.356;10.864;2022-10-22T00:32:31;13.60;99.90
32470;DHT22;18925;48.356;10.864;2022-10-22T00:33:02;13.60;99.90
32470;DHT22;18925;48.356;10.864;2022-10-22T00:33:32;13.60;99.90
32470;DHT22;18925;48.356;10.864;2022-10-22T00:34:03;13.60;99.90
32470;DHT22;18925;48.356;10.864;2022-10-22T00:34:34;13.60;99.90
32470;DHT22;18925;48.356;10.864;2022-10-22T00:35:06;13.60;99.90
32470;DHT22;18925;48.356;10.864;2022-10-22T00:35:36;13.60;99.90
32470;DHT22;18925;48.356;10.864;2022-10-22T00:36:07;13.60;99.90
32470;DHT22;18925;48.356;10.864;2022-10-22T00:36:38;13.60;99.90
32470;DHT22;18925;48.356;10.864;2022-10-22T00:37:09;13.60;99.90
32470;DHT22;18925;48.356;10.864;2022-10-22T00:37:39;13.60;99.90
32470;DHT22;18925;48.356;10.864;2022-10-22T00:38:10;13.60;99.90
32470;DHT22;18925;48.356;10.864;2022-10-22T00:38:41;13.60;99.90
32470;DHT22;18925;48.356;10.864;2022-10-22T00:39:13;13.60;99.90
32470;DHT22;18925;48.356;10.864;2022-10-22T00:39:45;13.60;99.90
32470;DHT22;18925;48.356;10.864;2022-10-22T00:40:16;13.60;99.90
32470;DHT22;18925;48.356;10.864;2022-10-22T00:40:46;13.60;99.90
32470;DHT22;18925;48.356;10.864;2022-10-22T00:41:17;13.60;99.90
32470;DHT22;18925;48.356;10.864;2022-10-22T00:41:49;13.60;99.90
32470;DHT22;18925;48.356;10.864;2022-10-22T00:42:23;13.60;99.90
32470;DHT22;18925;48.356;10.864;2022-10-22T00:42:54;13.70;99.90
32470;DHT22;18925;48.356;10.864;2022-10-22T00:43:26;13.60;99.90
32470;DHT22;18925;48.356;10.864;2022-10-22T00:44:03;13.60;99.90
32470;DHT22;18925;48.356;10.864;2022-10-22T00:45:06;13.60;99.90
32470;DHT22;18925;48.356;10.864;2022-10-22T00:45:37;13.60;99.90
32470;DHT22;18925;48.356;10.864;2022-10-22T00:46:08;13.60;99.90
32470;DHT22;18925;48.356;10.864;2022-10-22T00:46:38;13.60;99.90
32470;DHT22;18925;48.356;10.864;2022-10-22T00:47:09;13.60;99.90
32470;DHT22;18925;48.356;10.864;2022-10-22T00:47:59;13.60;99.90
32470;DHT22;18925;48.356;10.864;2022-10-22T00:48:31;13.60;99.90
32470;DHT22;18925;48.356;10.864;2022-10-22T00:49:03;13.60;99.90
32470;DHT22;18925;48.356;10.864;2022-10-22T00:49:34;13.60;99.90
32470;DHT22;18925;48.356;10.864;2022-10-22T00:50:08;13.60;99.90
32470;DHT22;18925;48.356;10.864;2022-10-22T00:51:15;13.60;99.90
32470;DHT22;18925;48.356;10.864;2022-10-22T00:51:45;13.50;99.90
32470;DHT22;18925;48.356;10.864;2022-10-22T00:52:16;13.50;99.90
32470;DHT22;18925;48.356;10.864;2022-10-22T00:52:47;13.50;99.90
32470;DHT22;18925;48.356;10.864;2022-10-22T00:53:21;13.50;99.90
32470;DHT22;18925;48.356;10.864;2022-10-22T00:53:56;13.50;99.90
32470;DHT22;18925;48.356;10.864;2022-10-22T00:54:26;13.50;99.90
32470;DHT22;18925;48.356;10.864;2022-10-22T00:54:57;13.50;99.90
32470;DHT22;18925;48.356;10.864;2022-10-22T00:55:29;13.50;99.90
32470;DHT22;18925;48.356;10.864;2022-10-22T00:56:01;13.50;99.90
32470;DHT22;18925;48.356;10.864;2022-10-22T00:56:32;13.50;99.90
32470;DHT22;18925;48.356;10.864;2022-10-22T00:57:03;13.50;99.90
32470;DHT22;18925;48.356;10.864;2022-10-22T00:57:34;13.50;99.90
32470;DHT22;18925;48.356;10.864;2022-10-22T00:58:05;13.50;99.90
32470;DHT22;18925;48.356;10.864;2022-10-22T00:58:46;13.50;99.90
32470;DHT22;18925;48.356;10.864;2022-10-22T00:59:18;13.50;99.90
32470;DHT22;18925;48.356;10.864;2022-10-22T00:59:48;13.50;99.90
32470;DHT22;18925;48.356;10.864;2022-10-22T01:00:19;13.50;99.90
32470;DHT22;18925;48.356;10.864;2022-10-22T01:00:50;13.50;99.90
32470;DHT22;18925;48.356;10.864;2022-10-22T01:01:27;13.50;99.90
32470;DHT22;18925;48.356;10.864;2022-10-22T01:01:58;13.50;99.90
32470;DHT22;18925;48.356;10.864;2022-10-22T01:02:29;13.50;99.90
32470;DHT22;18925;48.356;10.864;2022-10-22T01:02:59;13.50;99.90
32470;DHT22;18925;48.356;10.864;2022-10-22T01:03:31;13.60;99.90
32470;DHT22;18925;48.356;10.864;2022-10-22T01:04:02;13.60;99.90
32470;DHT22;18925;48.356;10.864;2022-10-22T01:04:32;13.60;99.90
32470;DHT22;18925;48.356;10.864;2022-10-22T01:05:03;13.50;99.90
32470;DHT22;18925;48.356;10.864;2022-10-22T01:05:45;13.50;99.90
32470;DHT22;18925;48.356;10.864;2022-10-22T01:06:27;13.50;99.90
32470;DHT22;18925;48.356;10.864;2022-10-22T01:06:58;13.60;99.90
32470;DHT22;18925;48.356;10.864;2022-10-22T01:07:29;13.60;99.90
32470;DHT22;18925;48.356;10.864;2022-10-22T01:08:00;13.50;99.90
32470;DHT22;18925;48.356;10.864;2022-10-22T01:09:58;13.50;99.90
32470;DHT22;18925;48.356;10.864;2022-10-22T01:13:42;13.50;99.90
32470;DHT22;18925;48.356;10.864;2022-10-22T01:14:28;13.50;99.90
32470;DHT22;18925;48.356;10.864;2022-10-22T01:17:54;13.60;99.90
32470;DHT22;18925;48.356;10.864;2022-10-22T01:18:24;13.60;99.90
32470;DHT22;18925;48.356;10.864;2022-10-22T01:19:24;13.60;99.90
32470;DHT22;18925;48.356;10.864;2022-10-22T01:20:08;13.60;99.90
32470;DHT22;18925;48.356;10.864;2022-10-22T01:21:02;13.60;99.90
32470;DHT22;18925;48.356;10.864;2022-10-22T01:21:46;13.60;99.90
32470;DHT22;18925;48.356;10.864;2022-10-22T01:23:13;13.60;99.90
32470;DHT22;18925;48.356;10.864;2022-10-22T01:24:31;13.60;99.90
32470;DHT22;18925;48.356;10.864;2022-10-22T01:26:05;13.60;99.90
32470;DHT22;18925;48.356;10.864;2022-10-22T01:29:02;13.60;99.90
32470;DHT22;18925;48.356;10.864;2022-10-22T01:29:50;13.60;99.90
32470;DHT22;18925;48.356;10.864;2022-10-22T01:30:22;13.60;99.90
32470;DHT22;18925;48.356;10.864;2022-10-22T01:30:55;13.60;99.90
32470;DHT22;18925;48.356;10.864;2022-10-22T01:31:41;13.60;99.90
32470;DHT22;18925;48.356;10.864;2022-10-22T01:32:16;13.60;99.90
32470;DHT22;18925;48.356;10.864;2022-10-22T01:32:51;13.60;99.90
32470;DHT22;18925;48.356;10.864;2022-10-22T01:33:25;13.60;99.90
32470;DHT22;18925;48.356;10.864;2022-10-22T01:33:58;13.60;99.90
32470;DHT22;18925;48.356;10.864;2022-10-22T01:34:30;13.60;99.90
32470;DHT22;18925;48.356;10.864;2022-10-22T01:35:05;13.60;99.90
32470;DHT22;18925;48.356;10.864;2022-10-22T01:35:39;13.60;99.90
32470;DHT22;18925;48.356;10.864;2022-10-22T01:36:12;13.60;99.90
32470;DHT22;18925;48.356;10.864;2022-10-22T01:36:44;13.60;99.90
32470;DHT22;18925;48.356;10.864;2022-10-22T01:37:16;13.60;99.90
32470;DHT22;18925;48.356;10.864;2022-10-22T01:37:53;13.60;99.90
32470;DHT22;18925;48.356;10.864;2022-10-22T01:38:25;13.60;99.90
32470;DHT22;18925;48.356;10.864;2022-10-22T01:38:58;13.60;99.90
32470;DHT22;18925;48.356;10.864;2022-10-22T01:39:30;13.60;99.90
32470;DHT22;18925;48.356;10.864;2022-10-22T01:40:02;13.60;99.90
32470;DHT22;18925;48.356;10.864;2022-10-22T01:40:35;13.60;99.90
32470;DHT22;18925;48.356;10.864;2022-10-22T01:41:06;13.60;99.90
32470;DHT22;18925;48.356;10.864;2022-10-22T01:41:38;13.60;99.90
32470;DHT22;18925;48.356;10.864;2022-10-22T01:42:11;13.60;99.90
32470;DHT22;18925;48.356;10.864;2022-10-22T01:42:42;13.60;99.90
32470;DHT22;18925;48.356;10.864;2022-10-22T01:43:22;13.60;99.90
32470;DHT22;18925;48.356;10.864;2022-10-22T01:43:54;13.60;99.90
32470;DHT22;18925;48.356;10.864;2022-10-22T01:44:27;13.60;99.90
32470;DHT22;18925;48.356;10.864;2022-10-22T01:44:57;13.70;99.90
32470;DHT22;18925;48.356;10.864;2022-10-22T01:45:32;13.60;99.90
32470;DHT22;18925;48.356;10.864;2022-10-22T01:46:05;13.70;99.90
32470;DHT22;18925;48.356;10.864;2022-10-22T01:46:36;13.60;99.90
32470;DHT22;18925;48.356;10.864;2022-10-22T01:49:23;13.60;99.90
32470;DHT22;18925;48.356;10.864;2022-10-22T01:50:31;13.60;99.90
32470;DHT22;18925;48.356;10.864;2022-10-22T01:53:36;13.50;99.90
32470;DHT22;18925;48.356;10.864;2022-10-22T01:54:08;13.50;99.90
32470;DHT22;18925;48.356;10.864;2022-10-22T01:54:52;13.40;99.90
32470;DHT22;18925;48.356;10.864;2022-10-22T01:57:27;13.30;99.90
32470;DHT22;18925;48.356;10.864;2022-10-22T01:58:24;13.30;99.90
32470;DHT22;18925;48.356;10.864;2022-10-22T02:00:26;13.20;99.90
32470;DHT22;18925;48.356;10.864;2022-10-22T02:01:07;13.10;99.90
32470;DHT22;18925;48.356;10.864;2022-10-22T02:01:53;13.10;99.90
32470;DHT22;18925;48.356;10.864;2022-10-22T02:02:42;13.10;99.90
32470;DHT22;18925;48.356;10.864;2022-10-22T02:03:22;13.10;99.90
32470;DHT22;18925;48.356;10.864;2022-10-22T02:04:10;13.10;99.90
32470;DHT22;18925;48.356;10.864;2022-10-22T02:05:38;13.00;99.90
32470;DHT22;18925;48.356;10.864;2022-10-22T02:06:14;13.00;99.90
32470;DHT22;18925;48.356;10.864;2022-10-22T02:06:48;13.00;99.90
32470;DHT22;18925;48.356;10.864;2022-10-22T02:07:24;13.00;99.90
32470;DHT22;18925;48.356;10.864;2022-10-22T02:08:09;13.00;99.90
32470;DHT22;18925;48.356;10.864;2022-10-22T02:08:42;13.00;99.90
32470;DHT22;18925;48.356;10.864;2022-10-22T02:09:15;12.90;99.90
32470;DHT22;18925;48.356;10.864;2022-10-22T02:09:48;13.00;99.90
32470;DHT22;18925;48.356;10.864;2022-10-22T02:10:21;13.00;99.90
32470;DHT22;18925;48.356;10.864;2022-10-22T02:10:53;13.00;99.90
32470;DHT22;18925;48.356;10.864;2022-10-22T02:11:25;13.00;99.90
32470;DHT22;18925;48.356;10.864;2022-10-22T02:11:57;13.00;99.90
32470;DHT22;18925;48.356;10.864;2022-10-22T02:12:30;13.00;99.90
32470;DHT22;18925;48.356;10.864;2022-10-22T02:13:02;13.00;99.90
32470;DHT22;18925;48.356;10.864;2022-10-22T02:13:36;12.90;99.90
32470;DHT22;18925;48.356;10.864;2022-10-22T02:14:10;13.00;99.90
32470;DHT22;18925;48.356;10.864;2022-10-22T02:14:43;12.90;99.90
32470;DHT22;18925;48.356;10.864;2022-10-22T02:15:16;12.90;99.90
32470;DHT22;18925;48.356;10.864;2022-10-22T02:15:49;12.90;99.90
32470;DHT22;18925;48.356;10.864;2022-10-22T02:16:33;12.90;99.90
32470;DHT22;18925;48.356;10.864;2022-10-22T02:17:07;12.90;99.90
32470;DHT22;18925;48.356;10.864;2022-10-22T02:17:39;12.90;99.90
32470;DHT22;18925;48.356;10.864;2022-10-22T02:18:13;12.90;99.90
32470;DHT22;18925;48.356;10.864;2022-10-22T02:18:45;12.80;99.90
32470;DHT22;18925;48.356;10.864;2022-10-22T02:19:58;12.90;99.90
32470;DHT22;18925;48.356;10.864;2022-10-22T02:20:34;12.90;99.90
32470;DHT22;18925;48.356;10.864;2022-10-22T02:21:06;12.90;99.90
32470;DHT22;18925;48.356;10.864;2022-10-22T02:21:37;12.80;99.90
32470;DHT22;18925;48.356;10.864;2022-10-22T02:22:08;12.80;99.90
32470;DHT22;18925;48.356;10.864;2022-10-22T02:22:39;12.80;99.90
32470;DHT22;18925;48.356;10.864;2022-10-22T02:23:11;12.80;99.90
32470;DHT22;18925;48.356;10.864;2022-10-22T02:23:42;12.80;99.90
32470;DHT22;18925;48.356;10.864;2022-10-22T02:24:13;12.80;99.90
32470;DHT22;18925;48.356;10.864;2022-10-22T02:24:44;12.80;99.90
32470;DHT22;18925;48.356;10.864;2022-10-22T02:25:16;12.80;99.90
32470;DHT22;18925;48.356;10.864;2022-10-22T02:25:50;12.80;99.90
32470;DHT22;18925;48.356;10.864;2022-10-22T02:26:36;12.70;99.90
32470;DHT22;18925;48.356;10.864;2022-10-22T02:27:25;12.70;99.90
32470;DHT22;18925;48.356;10.864;2022-10-22T02:28:03;12.70;99.90
32470;DHT22;18925;48.356;10.864;2022-10-22T02:28:43;12.70;99.90
32470;DHT22;18925;48.356;10.864;2022-10-22T02:29:20;12.70;99.90
32470;DHT22;18925;48.356;10.864;2022-10-22T02:30:00;12.70;99.90
32470;DHT22;18925;48.356;10.864;2022-10-22T02:30:32;12.70;99.90
32470;DHT22;18925;48.356;10.864;2022-10-22T02:31:18;12.70;99.90
32470;DHT22;18925;48.356;10.864;2022-10-22T02:31:52;12.70;99.90
32470;DHT22;18925;48.356;10.864;2022-10-22T02:32:31;12.70;99.90
32470;DHT22;18925;48.356;10.864;2022-10-22T02:33:15;12.70;99.90
32470;DHT22;18925;48.356;10.864;2022-10-22T02:33:50;12.70;99.90
32470;DHT22;18925;48.356;10.864;2022-10-22T02:34:26;12.70;99.90
32470;DHT22;18925;48.356;10.864;2022-10-22T02:34:58;12.60;99.90
32470;DHT22;18925;48.356;10.864;2022-10-22T02:35:30;12.60;99.90
32470;DHT22;18925;48.356;10.864;2022-10-22T02:36:02;12.60;99.90
32470;DHT22;18925;48.356;10.864;2022-10-22T02:36:34;12.70;99.90
32470;DHT22;18925;48.356;10.864;2022-10-22T02:37:05;12.70;99.90
32470;DHT22;18925;48.356;10.864;2022-10-22T02:37:37;12.70;99.90
32470;DHT22;18925;48.356;10.864;2022-10-22T02:38:08;12.70;99.90
32470;DHT22;18925;48.356;10.864;2022-10-22T02:38:40;12.70;99.90
32470;DHT22;18925;48.356;10.864;2022-10-22T02:39:12;12.70;99.90
32470;DHT22;18925;48.356;10.864;2022-10-22T02:39:44;12.70;99.90
32470;DHT22;18925;48.356;10.864;2022-10-22T02:40:16;12.70;99.90
32470;DHT22;18925;48.356;10.864;2022-10-22T02:40:46;12.70;99.90
32470;DHT22;18925;48.356;10.864;2022-10-22T02:41:18;12.70;99.90
32470;DHT22;18925;48.356;10.864;2022-10-22T02:41:49;12.70;99.90
32470;DHT22;18925;48.356;10.864;2022-10-22T02:42:20;12.70;99.90
32470;DHT22;18925;48.356;10.864;2022-10-22T02:42:51;12.70;99.90
32470;DHT22;18925;48.356;10.864;2022-10-22T02:43:23;12.70;99.90
32470;DHT22;18925;48.356;10.864;2022-10-22T02:43:55;12.70;99.90
32470;DHT22;18925;48.356;10.864;2022-10-22T02:44:26;12.70;99.90
32470;DHT22;18925;48.356;10.864;2022-10-22T02:44:56;12.70;99.90
32470;DHT22;18925;48.356;10.864;2022-10-22T02:45:27;12.70;99.90
32470;DHT22;18925;48.356;10.864;2022-10-22T02:45:58;12.70;99.90
32470;DHT22;18925;48.356;10.864;2022-10-22T02:46:28;12.70;99.90
32470;DHT22;18925;48.356;10.864;2022-10-22T02:46:59;12.80;99.90
32470;DHT22;18925;48.356;10.864;2022-10-22T02:47:30;12.70;99.90
32470;DHT22;18925;48.356;10.864;2022-10-22T02:48:02;12.80;99.90
32470;DHT22;18925;48.356;10.864;2022-10-22T02:48:33;12.70;99.90
32470;DHT22;18925;48.356;10.864;2022-10-22T02:49:03;12.80;99.90
32470;DHT22;18925;48.356;10.864;2022-10-22T02:49:34;12.80;99.90
32470;DHT22;18925;48.356;10.864;2022-10-22T02:50:05;12.80;99.90
32470;DHT22;18925;48.356;10.864;2022-10-22T02:50:36;12.80;99.90
32470;DHT22;18925;48.356;10.864;2022-10-22T02:51:07;12.80;99.90
32470;DHT22;18925;48.356;10.864;2022-10-22T02:51:38;12.80;99.90
32470;DHT22;18925;48.356;10.864;2022-10-22T02:52:08;12.70;99.90
32470;DHT22;18925;48.356;10.864;2022-10-22T02:52:39;12.70;99.90
32470;DHT22;18925;48.356;10.864;2022-10-22T02:53:10;12.70;99.90
32470;DHT22;18925;48.356;10.864;2022-10-22T02:53:40;12.80;99.90
32470;DHT22;18925;48.356;10.864;2022-10-22T02:54:11;12.80;99.90
32470;DHT22;18925;48.356;10.864;2022-10-22T02:54:42;12.80;99.90
32470;DHT22;18925;48.356;10.864;2022-10-22T02:55:12;12.80;99.90
32470;DHT22;18925;48.356;10.864;2022-10-22T02:55:43;12.80;99.90
32470;DHT22;18925;48.356;10.864;2022-10-22T02:56:14;12.70;99.90
32470;DHT22;18925;48.356;10.864;2022-10-22T02:56:44;12.80;99.90
32470;DHT22;18925;48.356;10.864;2022-10-22T02:57:15;12.80;99.90
32470;DHT22;18925;48.356;10.864;2022-10-22T02:57:46;12.70;99.90
32470;DHT22;18925;48.356;10.864;2022-10-22T02:58:16;12.70;99.90
32470;DHT22;18925;48.356;10.864;2022-10-22T02:58:47;12.80;99.90
32470;DHT22;18925;48.356;10.864;2022-10-22T02:59:18;12.70;99.90
32470;DHT22;18925;48.356;10.864;2022-10-22T02:59:48;12.70;99.90
32470;DHT22;18925;48.356;10.864;2022-10-22T03:00:19;12.70;99.90
32470;DHT22;18925;48.356;10.864;2022-10-22T03:00:50;12.80;99.90
32470;DHT22;18925;48.356;10.864;2022-10-22T03:01:20;12.70;99.90
32470;DHT22;18925;48.356;10.864;2022-10-22T03:01:51;12.80;99.90
32470;DHT22;18925;48.356;10.864;2022-10-22T03:02:22;12.80;99.90
32470;DHT22;18925;48.356;10.864;2022-10-22T03:02:52;12.70;99.90
32470;DHT22;18925;48.356;10.864;2022-10-22T03:03:23;12.70;99.90
32470;DHT22;18925;48.356;10.864;2022-10-22T03:03:54;12.70;99.90
32470;DHT22;18925;48.356;10.864;2022-10-22T03:04:24;12.70;99.90
32470;DHT22;18925;48.356;10.864;2022-10-22T03:04:55;12.70;99.90
32470;DHT22;18925;48.356;10.864;2022-10-22T03:05:26;12.70;99.90
32470;DHT22;18925;48.356;10.864;2022-10-22T03:05:56;12.70;99.90
32470;DHT22;18925;48.356;10.864;2022-10-22T03:06:27;12.70;99.90
32470;DHT22;18925;48.356;10.864;2022-10-22T03:06:58;12.70;99.90
32470;DHT22;18925;48.356;10.864;2022-10-22T03:07:28;12.70;99.90
32470;DHT22;18925;48.356;10.864;2022-10-22T03:07:59;12.70;99.90
32470;DHT22;18925;48.356;10.864;2022-10-22T03:08:30;12.70;99.90
32470;DHT22;18925;48.356;10.864;2022-10-22T03:09:00;12.70;99.90
32470;DHT22;18925;48.356;10.864;2022-10-22T03:09:31;12.70;99.90
32470;DHT22;18925;48.356;10.864;2022-10-22T03:10:02;12.70;99.90
32470;DHT22;18925;48.356;10.864;2022-10-22T03:10:33;12.70;99.90
32470;DHT22;18925;48.356;10.864;2022-10-22T03:11:04;12.70;99.90
32470;DHT22;18925;48.356;10.864;2022-10-22T03:11:34;12.70;99.90
32470;DHT22;18925;48.356;10.864;2022-10-22T03:12:05;12.70;99.90
32470;DHT22;18925;48.356;10.864;2022-10-22T03:12:37;12.70;99.90
32470;DHT22;18925;48.356;10.864;2022-10-22T03:13:08;12.70;99.90
32470;DHT22;18925;48.356;10.864;2022-10-22T03:13:39;12.70;99.90
32470;DHT22;18925;48.356;10.864;2022-10-22T03:14:09;12.70;99.90
32470;DHT22;18925;48.356;10.864;2022-10-22T03:14:40;12.70;99.90
32470;DHT22;18925;48.356;10.864;2022-10-22T03:15:11;12.70;99.90
32470;DHT22;18925;48.356;10.864;2022-10-22T03:15:41;12.60;99.90
32470;DHT22;18925;48.356;10.864;2022-10-22T03:16:12;12.70;99.90
32470;DHT22;18925;48.356;10.864;2022-10-22T03:16:43;12.70;99.90
32470;DHT22;18925;48.356;10.864;2022-10-22T03:17:13;12.70;99.90
32470;DHT22;18925;48.356;10.864;2022-10-22T03:17:44;12.70;99.90
32470;DHT22;18925;48.356;10.864;2022-10-22T03:18:15;12.70;99.90
32470;DHT22;18925;48.356;10.864;2022-10-22T03:18:45;12.70;99.90
32470;DHT22;18925;48.356;10.864;2022-10-22T03:19:16;12.70;99.90
32470;DHT22;18925;48.356;10.864;2022-10-22T03:19:47;12.70;99.90
32470;DHT22;18925;48.356;10.864;2022-10-22T03:20:17;12.70;99.90
32470;DHT22;18925;48.356;10.864;2022-10-22T03:20:48;12.70;99.90
32470;DHT22;18925;48.356;10.864;2022-10-22T03:21:54;12.60;99.90
32470;DHT22;18925;48.356;10.864;2022-10-22T03:22:28;12.60;99.90
32470;DHT22;18925;48.356;10.864;2022-10-22T03:23:00;12.60;99.90
32470;DHT22;18925;48.356;10.864;2022-10-22T03:23:31;12.60;99.90
32470;DHT22;18925;48.356;10.864;2022-10-22T03:24:07;12.60;99.90
32470;DHT22;18925;48.356;10.864;2022-10-22T03:24:44;12.60;99.90
32470;DHT22;18925;48.356;10.864;2022-10-22T03:25:24;12.50;99.90
32470;DHT22;18925;48.356;10.864;2022-10-22T03:25:55;12.60;99.90
32470;DHT22;18925;48.356;10.864;2022-10-22T03:26:26;12.60;99.90
32470;DHT22;18925;48.356;10.864;2022-10-22T03:26:57;12.60;99.90
32470;DHT22;18925;48.356;10.864;2022-10-22T03:27:28;12.60;99.90
32470;DHT22;18925;48.356;10.864;2022-10-22T03:28:04;12.60;99.90
32470;DHT22;18925;48.356;10.864;2022-10-22T03:28:37;12.50;99.90
32470;DHT22;18925;48.356;10.864;2022-10-22T03:29:10;12.60;99.90
32470;DHT22;18925;48.356;10.864;2022-10-22T03:29:43;12.60;99.90
32470;DHT22;18925;48.356;10.864;2022-10-22T03:30:14;12.60;99.90
32470;DHT22;18925;48.356;10.864;2022-10-22T03:30:45;12.60;99.90
32470;DHT22;18925;48.356;10.864;2022-10-22T03:31:15;12.50;99.90
32470;DHT22;18925;48.356;10.864;2022-10-22T03:31:46;12.60;99.90
32470;DHT22;18925;48.356;10.864;2022-10-22T03:32:17;12.60;99.90
32470;DHT22;18925;48.356;10.864;2022-10-22T03:32:48;12.60;99.90
32470;DHT22;18925;48.356;10.864;2022-10-22T03:33:18;12.50;99.90
32470;DHT22;18925;48.356;10.864;2022-10-22T03:33:49;12.60;99.90
32470;DHT22;18925;48.356;10.864;2022-10-22T03:34:20;12.50;99.90
32470;DHT22;18925;48.356;10.864;2022-10-22T03:34:50;12.50;99.90
32470;DHT22;18925;48.356;10.864;2022-10-22T03:35:21;12.50;99.90
32470;DHT22;18925;48.356;10.864;2022-10-22T03:35:52;12.50;99.90
32470;DHT22;18925;48.356;10.864;2022-10-22T03:36:22;12.50;99.90
32470;DHT22;18925;48.356;10.864;2022-10-22T03:36:55;12.50;99.90
32470;DHT22;18925;48.356;10.864;2022-10-22T03:37:26;12.50;99.90
32470;DHT22;18925;48.356;10.864;2022-10-22T03:37:59;12.50;99.90
32470;DHT22;18925;48.356;10.864;2022-10-22T03:38:30;12.50;99.90
32470;DHT22;18925;48.356;10.864;2022-10-22T03:39:03;12.50;99.90
32470;DHT22;18925;48.356;10.864;2022-10-22T03:39:35;12.50;99.90
32470;DHT22;18925;48.356;10.864;2022-10-22T03:40:07;12.50;99.90
32470;DHT22;18925;48.356;10.864;2022-10-22T03:40:38;12.40;99.90
32470;DHT22;18925;48.356;10.864;2022-10-22T03:41:10;12.40;99.90
32470;DHT22;18925;48.356;10.864;2022-10-22T03:41:40;12.40;99.90
32470;DHT22;18925;48.356;10.864;2022-10-22T03:42:11;12.40;99.90
32470;DHT22;18925;48.356;10.864;2022-10-22T03:42:43;12.40;99.90
32470;DHT22;18925;48.356;10.864;2022-10-22T03:43:13;12.40;99.90
32470;DHT22;18925;48.356;10.864;2022-10-22T03:43:44;12.40;99.90
32470;DHT22;18925;48.356;10.864;2022-10-22T03:44:20;12.50;99.90
32470;DHT22;18925;48.356;10.864;2022-10-22T03:44:52;12.40;99.90
32470;DHT22;18925;48.356;10.864;2022-10-22T03:45:22;12.40;99.90
32470;DHT22;18925;48.356;10.864;2022-10-22T03:45:53;12.40;99.90
32470;DHT22;18925;48.356;10.864;2022-10-22T03:46:23;12.40;99.90
32470;DHT22;18925;48.356;10.864;2022-10-22T03:46:54;12.40;99.90
32470;DHT22;18925;48.356;10.864;2022-10-22T03:47:25;12.40;99.90